createdAt,value
2018-03-23T00:00:29.655Z,21.80
2018-03-23T00:02:58.536Z,21.50
2018-03-23T00:05:27.939Z,20.83
2018-03-23T00:07:58.117Z,20.83
2018-03-23T00:10:27.528Z,20.60
2018-03-23T00:12:56.951Z,22.33
2018-03-23T00:15:27.863Z,20.47
2018-03-23T00:17:57.276Z,18.63
2018-03-23T00:20:26.675Z,19.60
2018-03-23T00:22:56.144Z,19.10
2018-03-23T00:25:25.546Z,20.03
2018-03-23T00:27:54.965Z,19.03
2018-03-23T00:30:24.381Z,18.00
2018-03-23T00:32:53.784Z,17.17
2018-03-23T00:35:23.289Z,17.97
2018-03-23T00:37:52.664Z,16.70
2018-03-23T00:40:22.088Z,15.60
2018-03-23T00:42:51.485Z,17.33
2018-03-23T00:45:20.954Z,18.30
2018-03-23T00:47:51.123Z,17.87
2018-03-23T00:50:20.295Z,17.90
2018-03-23T00:52:49.744Z,17.43
2018-03-23T00:55:19.284Z,16.97
2018-03-23T00:57:48.692Z,17.23
2018-03-23T01:00:18.103Z,19.53
2018-03-23T01:02:47.525Z,17.83
2018-03-23T01:05:16.944Z,18.77
2018-03-23T01:07:46.349Z,17.53
2018-03-23T01:10:15.767Z,19.40
2018-03-23T01:12:45.177Z,18.63
2018-03-23T01:15:15.355Z,19.33
2018-03-23T01:17:44.768Z,20.77
2018-03-23T01:20:13.844Z,21.07
2018-03-23T01:22:43.239Z,20.47
2018-03-23T01:25:12.664Z,20.80
2018-03-23T01:27:42.068Z,19.80
2018-03-23T01:30:11.153Z,20.83
2018-03-23T01:32:40.428Z,21.27
2018-03-23T01:35:09.844Z,23.33
2018-03-23T01:37:39.252Z,19.57
2018-03-23T01:40:08.493Z,20.63
2018-03-23T01:42:37.649Z,22.03
2018-03-23T01:45:07.051Z,23.50
2018-03-23T01:47:36.473Z,21.93
2018-03-23T01:50:05.561Z,23.33
2018-03-23T01:52:34.688Z,23.27
2018-03-23T01:55:03.760Z,21.93
2018-03-23T01:57:33.661Z,23.17
2018-03-23T02:00:03.070Z,23.97
2018-03-23T02:02:32.188Z,23.93
2018-03-23T02:05:01.606Z,23.00
2018-03-23T02:07:31.017Z,24.60
2018-03-23T02:10:00.628Z,26.60
2018-03-23T02:12:30.060Z,23.97
2018-03-23T02:14:59.478Z,23.87
2018-03-23T02:17:29.195Z,24.27
2018-03-23T02:19:58.249Z,23.97
2018-03-23T02:22:27.666Z,25.00
2018-03-23T02:24:57.064Z,24.67
2018-03-23T02:27:26.481Z,25.40
2018-03-23T02:29:55.891Z,28.40
2018-03-23T02:32:25.322Z,23.63
2018-03-23T02:34:54.761Z,24.60
2018-03-23T02:37:24.929Z,25.73
2018-03-23T02:39:54.339Z,25.30
2018-03-23T02:42:23.733Z,26.07
2018-03-23T02:44:53.859Z,26.47
2018-03-23T02:47:23.284Z,25.67
2018-03-23T02:49:53.474Z,25.07
2018-03-23T02:52:22.687Z,26.07
2018-03-23T02:54:52.104Z,26.13
2018-03-23T02:57:22.086Z,28.10
2018-03-23T02:59:51.568Z,26.97
2018-03-23T03:02:20.988Z,26.60
2018-03-23T03:04:50.406Z,28.00
2018-03-23T03:07:19.834Z,25.67
2018-03-23T03:09:50.009Z,25.67
2018-03-23T03:12:19.419Z,23.83
2018-03-23T03:14:48.825Z,23.63
2018-03-23T03:17:18.725Z,23.97
2018-03-23T03:19:48.124Z,23.23
2018-03-23T03:22:17.539Z,22.57
2018-03-23T03:24:46.944Z,21.20
2018-03-23T03:27:16.364Z,21.27
2018-03-23T03:29:45.772Z,21.47
2018-03-23T03:32:15.188Z,21.53
2018-03-23T03:34:45.353Z,21.37
2018-03-23T03:37:14.445Z,20.43
2018-03-23T03:39:43.858Z,20.43
2018-03-23T03:42:13.268Z,20.90
2018-03-23T03:44:42.670Z,21.93
2018-03-23T03:47:12.088Z,22.17
2018-03-23T03:49:41.504Z,19.43
2018-03-23T03:52:10.960Z,18.67
2018-03-23T03:54:40.360Z,20.23
2018-03-23T03:57:09.948Z,18.47
2018-03-23T03:59:39.364Z,19.43
2018-03-23T04:02:08.768Z,18.17
2018-03-23T04:04:38.180Z,18.47
2018-03-23T04:07:07.597Z,19.67
2018-03-23T04:09:37.017Z,21.73
2018-03-23T04:12:06.426Z,23.17
2018-03-23T04:14:35.849Z,22.77
2018-03-23T04:17:06.020Z,20.40
2018-03-23T04:19:35.442Z,19.80
2018-03-23T04:22:04.713Z,20.67
2018-03-23T04:24:34.132Z,19.60
2018-03-23T04:27:03.548Z,19.87
2018-03-23T04:29:33.338Z,18.67
2018-03-23T04:32:02.777Z,18.47
2018-03-23T04:34:32.207Z,17.53
2018-03-23T04:37:01.661Z,19.37
2018-03-23T04:39:31.059Z,18.77
2018-03-23T04:42:00.272Z,19.80
2018-03-23T04:44:29.693Z,16.67
2018-03-23T04:46:59.876Z,17.00
2018-03-23T04:49:29.312Z,18.23
2018-03-23T04:51:58.716Z,15.73
2018-03-23T04:54:28.891Z,15.60
2018-03-23T04:56:58.320Z,15.30
2018-03-23T04:59:27.743Z,15.77
2018-03-23T05:01:56.949Z,15.67
2018-03-23T05:04:26.944Z,14.90
2018-03-23T05:06:56.365Z,15.17
2018-03-23T05:09:26.542Z,15.60
2018-03-23T05:11:55.941Z,14.23
2018-03-23T05:14:25.368Z,13.10
2018-03-23T05:16:54.792Z,14.43
2018-03-23T05:19:24.987Z,15.33
2018-03-23T05:21:54.898Z,14.60
2018-03-23T05:24:24.308Z,13.83
2018-03-23T05:26:53.708Z,13.87
2018-03-23T05:29:23.135Z,14.17
2018-03-23T05:31:52.472Z,13.77
2018-03-23T05:34:21.591Z,12.07
2018-03-23T05:36:51.020Z,11.73
2018-03-23T05:39:20.452Z,11.50
2018-03-23T05:41:50.632Z,12.80
2018-03-23T05:44:20.168Z,12.47
2018-03-23T05:46:49.550Z,14.33
2018-03-23T05:49:19.726Z,12.80
2018-03-23T05:51:49.187Z,11.60
2018-03-23T05:54:18.749Z,13.97
2018-03-23T05:56:48.195Z,13.13
2018-03-23T05:59:17.594Z,12.73
2018-03-23T06:01:46.828Z,12.97
2018-03-23T06:04:16.230Z,11.63
2018-03-23T06:06:45.684Z,12.30
2018-03-23T06:09:15.269Z,11.67
2018-03-23T06:11:44.785Z,12.97
2018-03-23T06:14:14.193Z,11.73
2018-03-23T06:16:43.420Z,12.00
2018-03-23T06:19:13.910Z,11.63
2018-03-23T06:21:43.545Z,12.90
2018-03-23T06:24:13.732Z,12.03
2018-03-23T06:26:42.803Z,12.07
2018-03-23T06:29:12.216Z,12.90
2018-03-23T06:31:41.676Z,13.50
2018-03-23T06:34:11.199Z,12.90
2018-03-23T06:36:40.733Z,12.43
2018-03-23T06:39:10.492Z,11.80
2018-03-23T06:41:40.446Z,10.83
2018-03-23T06:44:10.620Z,11.77
2018-03-23T06:46:40.185Z,11.73
2018-03-23T06:49:09.857Z,11.23
2018-03-23T06:51:40.062Z,12.40
2018-03-23T06:54:09.988Z,12.00
2018-03-23T06:56:40.210Z,11.20
2018-03-23T06:59:09.606Z,11.43
2018-03-23T07:01:39.822Z,10.93
2018-03-23T07:04:09.284Z,11.73
2018-03-23T07:06:38.718Z,10.77
2018-03-23T07:09:08.132Z,10.83
2018-03-23T07:11:38.320Z,10.63
2018-03-23T07:14:07.761Z,12.00
2018-03-23T07:16:37.933Z,10.93
2018-03-23T07:19:07.354Z,10.87
2018-03-23T07:21:36.770Z,9.90
2018-03-23T07:24:06.204Z,10.67
2018-03-23T07:26:35.632Z,10.07
2018-03-23T07:29:05.045Z,9.83
2018-03-23T07:31:34.440Z,10.00
2018-03-23T07:34:03.589Z,9.93
2018-03-23T07:36:33.002Z,9.77
2018-03-23T07:39:02.973Z,8.57
2018-03-23T07:41:31.918Z,9.50
2018-03-23T07:44:02.131Z,9.90
2018-03-23T07:46:31.516Z,9.53
2018-03-23T07:49:00.976Z,9.97
2018-03-23T07:51:30.545Z,10.03
2018-03-23T07:54:00.707Z,9.40
2018-03-23T07:56:30.120Z,9.33
2018-03-23T07:58:59.533Z,9.30
2018-03-23T08:01:28.954Z,9.43
2018-03-23T08:03:59.868Z,9.57
2018-03-23T08:06:29.292Z,9.87
2018-03-23T08:08:58.714Z,10.00
2018-03-23T08:11:28.953Z,8.47
2018-03-23T08:13:58.394Z,8.87
2018-03-23T08:16:27.826Z,9.80
2018-03-23T08:18:57.246Z,9.30
2018-03-23T08:21:27.444Z,8.80
2018-03-23T08:23:56.892Z,9.33
2018-03-23T08:26:26.309Z,9.37
2018-03-23T08:28:55.755Z,9.07
2018-03-23T08:31:25.184Z,9.60
2018-03-23T08:33:55.402Z,8.77
2018-03-23T08:36:25.626Z,9.70
2018-03-23T08:38:55.196Z,7.87
2018-03-23T08:41:24.621Z,9.37
2018-03-23T08:43:55.031Z,8.23
2018-03-23T08:46:25.956Z,8.90
2018-03-23T08:48:55.434Z,8.10
2018-03-23T08:51:24.849Z,7.60
2018-03-23T08:53:54.280Z,7.70
2018-03-23T08:56:23.752Z,7.43
2018-03-23T08:58:53.369Z,7.97
2018-03-23T09:01:22.753Z,7.10
2018-03-23T09:03:52.199Z,8.73
2018-03-23T09:06:21.606Z,6.83
2018-03-23T09:08:51.113Z,7.73
2018-03-23T09:11:20.375Z,7.10
2018-03-23T09:13:51.950Z,7.07
2018-03-23T09:16:21.385Z,7.60
2018-03-23T09:18:51.767Z,7.70
2018-03-23T09:21:21.274Z,6.70
2018-03-23T09:23:50.722Z,7.13
2018-03-23T09:26:20.845Z,7.03
2018-03-23T09:28:50.251Z,7.33
2018-03-23T09:31:19.670Z,7.57
2018-03-23T09:33:49.093Z,7.10
2018-03-23T09:36:18.531Z,7.37
2018-03-23T09:38:47.968Z,7.57
2018-03-23T09:41:17.414Z,6.77
2018-03-23T09:43:46.899Z,7.37
2018-03-23T09:46:16.674Z,6.67
2018-03-23T09:48:46.895Z,6.97
2018-03-23T09:51:17.098Z,6.23
2018-03-23T09:53:47.413Z,6.37
2018-03-23T09:56:17.653Z,6.97
2018-03-23T09:58:47.847Z,7.60
2018-03-23T10:01:17.302Z,7.43
2018-03-23T10:03:47.529Z,6.93
2018-03-23T10:06:17.917Z,6.77
2018-03-23T10:08:47.959Z,6.00
2018-03-23T10:11:18.145Z,7.10
2018-03-23T10:13:47.595Z,6.60
2018-03-23T10:16:17.360Z,7.13
2018-03-23T10:18:47.067Z,6.00
2018-03-23T10:21:16.500Z,6.80
2018-03-23T10:23:46.917Z,8.47
2018-03-23T10:26:16.472Z,8.13
2018-03-23T10:28:45.883Z,8.63
2018-03-23T10:31:15.314Z,9.03
2018-03-23T10:33:45.612Z,8.20
2018-03-23T10:36:15.026Z,8.40
2018-03-23T10:38:44.454Z,9.40
2018-03-23T10:41:14.727Z,9.40
2018-03-23T10:43:43.954Z,9.30
2018-03-23T10:46:13.392Z,8.53
2018-03-23T10:48:42.811Z,7.93
2018-03-23T10:51:12.225Z,8.80
2018-03-23T10:53:41.368Z,8.53
2018-03-23T10:56:12.327Z,9.40
2018-03-23T10:58:42.497Z,9.37
2018-03-23T11:01:17.515Z,9.03
2018-03-23T11:03:46.893Z,8.60
2018-03-23T11:06:16.322Z,8.93
2018-03-23T11:08:45.738Z,8.80
2018-03-23T11:11:15.158Z,8.77
2018-03-23T11:13:44.587Z,9.63
2018-03-23T11:16:13.989Z,9.23
2018-03-23T11:18:44.186Z,8.13
2018-03-23T11:21:13.955Z,9.10
2018-03-23T11:23:43.375Z,8.33
2018-03-23T11:26:12.873Z,8.70
2018-03-23T11:28:42.287Z,10.00
2018-03-23T11:31:11.787Z,9.73
2018-03-23T11:33:41.224Z,8.00
2018-03-23T11:36:10.686Z,9.17
2018-03-23T11:38:40.102Z,8.40
2018-03-23T11:41:11.073Z,9.47
2018-03-23T11:43:40.241Z,9.67
2018-03-23T11:46:09.670Z,10.40
2018-03-23T11:48:38.793Z,9.10
2018-03-23T11:51:08.206Z,9.20
2018-03-23T11:53:37.820Z,9.60
2018-03-23T11:56:08.134Z,9.47
2018-03-23T11:58:37.569Z,10.43
2018-03-23T12:01:06.994Z,8.83
2018-03-23T12:03:36.155Z,10.80
2018-03-23T12:06:05.565Z,8.57
2018-03-23T12:08:34.973Z,8.10
2018-03-23T12:11:04.423Z,9.23
2018-03-23T12:13:34.030Z,8.13
2018-03-23T12:16:03.876Z,9.17
2018-03-23T12:18:33.307Z,10.20
2018-03-23T12:21:02.742Z,8.57
2018-03-23T12:23:33.006Z,8.53
2018-03-23T12:26:02.416Z,8.60
2018-03-23T12:28:31.867Z,8.97
2018-03-23T12:31:02.052Z,9.43
2018-03-23T12:33:31.540Z,9.17
2018-03-23T12:36:00.994Z,8.53
2018-03-23T12:38:30.111Z,7.80
2018-03-23T12:40:59.545Z,9.93
2018-03-23T12:43:28.957Z,8.80
2018-03-23T12:45:58.380Z,9.77
2018-03-23T12:48:27.978Z,9.13
2018-03-23T12:50:57.440Z,9.50
2018-03-23T12:53:27.097Z,9.17
2018-03-23T12:55:56.999Z,9.47
2018-03-23T12:58:26.418Z,9.63
2018-03-23T13:00:55.815Z,10.70
2018-03-23T13:03:25.232Z,9.97
2018-03-23T13:05:55.489Z,10.50
2018-03-23T13:08:25.983Z,10.03
2018-03-23T13:10:56.173Z,9.87
2018-03-23T13:13:25.236Z,10.07
2018-03-23T13:15:54.664Z,10.07
2018-03-23T13:18:24.085Z,10.80
2018-03-23T13:20:53.512Z,12.63
2018-03-23T13:23:23.690Z,10.67
2018-03-23T13:25:53.319Z,10.67
2018-03-23T13:28:22.741Z,11.50
2018-03-23T13:30:52.753Z,9.50
2018-03-23T13:33:22.924Z,10.93
2018-03-23T13:35:52.460Z,10.40
2018-03-23T13:38:21.580Z,11.63
2018-03-23T13:40:51.780Z,10.70
2018-03-23T13:43:22.697Z,11.93
2018-03-23T13:45:52.125Z,11.30
2018-03-23T13:48:21.556Z,10.57
2018-03-23T13:50:51.962Z,10.63
2018-03-23T13:53:22.221Z,10.80
2018-03-23T13:55:52.415Z,10.37
2018-03-23T13:58:21.866Z,11.33
2018-03-23T14:00:56.790Z,9.53
2018-03-23T14:03:26.208Z,11.20
2018-03-23T14:05:55.624Z,10.93
2018-03-23T14:08:25.090Z,10.63
2018-03-23T14:10:54.507Z,10.60
2018-03-23T14:13:23.941Z,10.50
2018-03-23T14:15:53.361Z,11.30
2018-03-23T14:18:22.515Z,10.30
2018-03-23T14:20:51.914Z,9.83
2018-03-23T14:23:21.340Z,10.30
2018-03-23T14:25:50.973Z,10.13
2018-03-23T14:28:20.381Z,10.97
2018-03-23T14:30:49.515Z,10.63
2018-03-23T14:33:19.857Z,11.47
2018-03-23T14:35:49.291Z,11.80
2018-03-23T14:38:18.717Z,11.10
2018-03-23T14:40:48.873Z,9.80
2018-03-23T14:43:18.344Z,11.43
2018-03-23T14:45:48.515Z,12.87
2018-03-23T14:48:17.921Z,11.20
2018-03-23T14:50:47.910Z,12.07
2018-03-23T14:53:17.333Z,12.40
2018-03-23T14:55:46.772Z,11.63
2018-03-23T14:58:16.940Z,12.20
2018-03-23T15:00:46.363Z,11.23
2018-03-23T15:03:16.285Z,11.80
2018-03-23T15:05:47.231Z,10.77
2018-03-23T15:08:16.649Z,11.03
2018-03-23T15:10:46.825Z,11.23
2018-03-23T15:13:16.291Z,11.77
2018-03-23T15:15:45.401Z,10.60
2018-03-23T15:18:14.892Z,10.40
2018-03-23T15:20:44.167Z,10.50
2018-03-23T15:23:13.741Z,10.67
2018-03-23T15:25:42.884Z,10.70
2018-03-23T15:28:13.072Z,11.00
2018-03-23T15:30:42.478Z,11.40
2018-03-23T15:33:12.005Z,11.57
2018-03-23T15:35:42.188Z,11.23
2018-03-23T15:38:11.444Z,11.07
2018-03-23T15:40:41.185Z,10.17
2018-03-23T15:43:11.960Z,10.23
2018-03-23T15:45:42.213Z,9.40
2018-03-23T15:48:11.789Z,9.80
2018-03-23T15:50:40.746Z,9.20
2018-03-23T15:53:10.155Z,9.60
2018-03-23T15:55:41.125Z,11.03
2018-03-23T15:58:10.341Z,9.53
2018-03-23T16:00:42.163Z,10.23
2018-03-23T16:03:12.183Z,10.90
2018-03-23T16:05:42.320Z,11.33
2018-03-23T16:08:11.740Z,9.53
2018-03-23T16:10:41.927Z,9.67
2018-03-23T16:13:11.722Z,8.77
2018-03-23T16:15:41.100Z,8.60
2018-03-23T16:18:10.516Z,9.43
2018-03-23T16:20:40.453Z,8.80
2018-03-23T16:23:10.703Z,9.00
2018-03-23T16:25:41.025Z,9.53
2018-03-23T16:28:10.262Z,9.57
2018-03-23T16:30:39.666Z,9.97
2018-03-23T16:33:08.808Z,8.53
2018-03-23T16:35:38.212Z,8.77
2018-03-23T16:38:07.809Z,9.77
2018-03-23T16:40:37.700Z,9.13
2018-03-23T16:43:07.425Z,8.53
2018-03-23T16:45:36.808Z,8.47
2018-03-23T16:48:06.403Z,8.73
2018-03-23T16:50:37.033Z,9.30
2018-03-23T16:53:06.259Z,8.90
2018-03-23T16:55:35.758Z,8.33
2018-03-23T16:58:06.068Z,8.93
2018-03-23T17:00:35.475Z,8.97
2018-03-23T17:03:04.908Z,8.90
2018-03-23T17:05:34.325Z,8.90
2018-03-23T17:08:03.645Z,8.97
2018-03-23T17:10:33.069Z,9.80
2018-03-23T17:13:02.469Z,9.70
2018-03-23T17:15:32.322Z,9.07
2018-03-23T17:18:01.808Z,9.57
2018-03-23T17:20:31.411Z,10.37
2018-03-23T17:23:00.660Z,9.47
2018-03-23T17:25:31.131Z,9.43
2018-03-23T17:28:01.694Z,9.27
2018-03-23T17:30:31.132Z,9.93
2018-03-23T17:33:00.647Z,9.27
2018-03-23T17:35:30.054Z,8.47
2018-03-23T17:37:59.585Z,10.03
2018-03-23T17:40:29.019Z,9.33
2018-03-23T17:42:59.353Z,8.80
2018-03-23T17:45:28.764Z,11.23
2018-03-23T17:47:58.958Z,8.97
2018-03-23T17:50:28.386Z,8.53
2018-03-23T17:52:57.828Z,9.13
2018-03-23T17:55:27.252Z,9.63
2018-03-23T17:57:56.666Z,10.43
2018-03-23T18:00:27.556Z,9.07
2018-03-23T18:02:57.009Z,9.97
2018-03-23T18:05:26.405Z,9.57
2018-03-23T18:07:55.835Z,10.20
2018-03-23T18:10:26.101Z,10.10
2018-03-23T18:12:55.705Z,9.70
2018-03-23T18:15:25.101Z,9.73
2018-03-23T18:17:54.540Z,9.77
2018-03-23T18:20:23.981Z,9.20
2018-03-23T18:22:53.638Z,9.50
2018-03-23T18:25:23.182Z,9.50
2018-03-23T18:27:52.713Z,11.23
2018-03-23T18:30:22.767Z,10.33
2018-03-23T18:32:52.227Z,9.20
2018-03-23T18:35:22.416Z,10.93
2018-03-23T18:37:53.347Z,10.73
2018-03-23T18:40:22.747Z,9.27
2018-03-23T18:42:52.173Z,10.37
2018-03-23T18:45:22.354Z,11.03
2018-03-23T18:47:51.992Z,10.80
2018-03-23T18:50:21.445Z,10.63
2018-03-23T18:52:50.872Z,10.90
2018-03-23T18:55:21.116Z,10.10
2018-03-23T18:57:50.526Z,11.90
2018-03-23T19:00:19.662Z,10.27
2018-03-23T19:02:49.086Z,10.27
2018-03-23T19:05:18.645Z,10.93
2018-03-23T19:07:48.806Z,10.83
2018-03-23T19:10:18.052Z,11.13
2018-03-23T19:12:47.627Z,12.67
2018-03-23T19:15:17.041Z,10.67
2018-03-23T19:17:46.470Z,11.20
2018-03-23T19:20:16.652Z,10.00
2018-03-23T19:22:46.079Z,12.00
2018-03-23T19:25:15.516Z,10.47
2018-03-23T19:27:45.099Z,11.70
2018-03-23T19:30:14.166Z,9.87
2018-03-23T19:32:43.578Z,10.57
2018-03-23T19:35:13.006Z,10.47
2018-03-23T19:37:43.195Z,10.43
2018-03-23T19:40:12.940Z,11.77
2018-03-23T19:42:42.350Z,10.37
2018-03-23T19:45:12.567Z,10.63
2018-03-23T19:47:42.177Z,11.77
2018-03-23T19:50:12.388Z,11.07
2018-03-23T19:52:41.841Z,11.27
2018-03-23T19:55:11.432Z,11.97
2018-03-23T19:57:40.890Z,11.83
2018-03-23T20:00:10.312Z,11.20
2018-03-23T20:02:40.142Z,11.20
2018-03-23T20:05:10.300Z,11.43
2018-03-23T20:07:39.708Z,11.60
2018-03-23T20:10:09.135Z,11.27
2018-03-23T20:12:38.768Z,11.60
2018-03-23T20:15:09.340Z,12.00
2018-03-23T20:17:44.205Z,12.33
2018-03-23T20:20:19.105Z,14.20
2018-03-23T20:22:48.529Z,15.27
2018-03-23T20:25:17.937Z,14.60
2018-03-23T20:27:52.822Z,16.00
2018-03-23T20:30:22.217Z,14.07
2018-03-23T20:32:51.755Z,16.07
2018-03-23T20:35:21.220Z,15.50
2018-03-23T20:37:51.520Z,15.87
2018-03-23T20:40:21.739Z,14.13
2018-03-23T20:42:51.997Z,13.83
2018-03-23T20:45:21.439Z,14.47
2018-03-23T20:47:50.932Z,13.60
2018-03-23T20:50:20.361Z,12.23
2018-03-23T20:52:49.794Z,13.93
2018-03-23T20:55:19.216Z,12.27
2018-03-23T20:57:48.633Z,12.60
2018-03-23T21:00:18.067Z,12.73
2018-03-23T21:02:47.498Z,13.97
2018-03-23T21:05:17.680Z,12.57
2018-03-23T21:07:48.608Z,13.93
2018-03-23T21:10:18.013Z,12.97
2018-03-23T21:12:47.458Z,12.53
2018-03-23T21:15:16.820Z,13.50
2018-03-23T21:17:46.245Z,13.77
2018-03-23T21:20:15.665Z,12.67
2018-03-23T21:22:45.854Z,12.10
2018-03-23T21:25:15.261Z,12.23
2018-03-23T21:27:45.095Z,12.37
2018-03-23T21:30:14.988Z,13.13
2018-03-23T21:32:44.403Z,12.53
2018-03-23T21:35:13.874Z,13.33
2018-03-23T21:37:43.507Z,12.70
2018-03-23T21:40:12.948Z,11.77
2018-03-23T21:42:42.791Z,11.23
2018-03-23T21:45:12.953Z,11.70
2018-03-23T21:47:43.497Z,11.30
2018-03-23T21:50:13.234Z,11.43
2018-03-23T21:52:42.734Z,11.50
2018-03-23T21:55:12.256Z,11.67
2018-03-23T21:57:41.643Z,11.07
2018-03-23T22:00:11.086Z,11.03
2018-03-23T22:02:40.685Z,11.63
2018-03-23T22:05:10.210Z,11.50
2018-03-23T22:07:39.824Z,11.73
2018-03-23T22:10:09.435Z,12.77
2018-03-23T22:12:39.598Z,11.33
2018-03-23T22:15:09.136Z,11.67
2018-03-23T22:17:38.929Z,11.63
2018-03-23T22:20:08.357Z,11.37
2018-03-23T22:22:37.797Z,11.00
2018-03-23T22:25:07.209Z,11.17
2018-03-23T22:27:36.634Z,11.07
2018-03-23T22:30:06.043Z,10.40
2018-03-23T22:32:35.521Z,11.40
2018-03-23T22:35:04.881Z,10.50
2018-03-23T22:37:35.097Z,10.83
2018-03-23T22:40:03.669Z,13.00
2018-03-23T22:42:33.278Z,11.60
2018-03-23T22:45:02.709Z,11.33
2018-03-23T22:47:33.148Z,11.90
2018-03-23T22:50:02.594Z,10.70
2018-03-23T22:52:32.041Z,10.23
2018-03-23T22:55:02.225Z,11.13
2018-03-23T22:57:31.839Z,10.70
2018-03-23T23:00:01.285Z,11.43
2018-03-23T23:02:30.425Z,11.23
2018-03-23T23:04:59.843Z,10.37
2018-03-23T23:07:29.249Z,10.00
2018-03-23T23:09:58.893Z,10.37
2018-03-23T23:12:28.335Z,10.37
2018-03-23T23:14:57.744Z,9.73
2018-03-23T23:17:27.214Z,10.00
2018-03-23T23:19:56.459Z,10.07
2018-03-23T23:22:25.691Z,9.63
2018-03-23T23:24:55.940Z,9.13
2018-03-23T23:27:25.364Z,10.53
2018-03-23T23:29:54.815Z,10.70
2018-03-23T23:32:25.015Z,12.40
2018-03-23T23:34:54.559Z,11.20
2018-03-23T23:37:23.983Z,11.03
2018-03-23T23:39:53.404Z,9.90
2018-03-23T23:42:22.828Z,10.73
2018-03-23T23:44:52.245Z,10.20
2018-03-23T23:47:22.430Z,9.27
2018-03-23T23:49:51.815Z,9.93
2018-03-23T23:52:21.237Z,9.87
2018-03-23T23:54:50.659Z,10.90
2018-03-23T23:57:20.082Z,9.97
2018-03-23T23:59:49.478Z,10.10
